sensor_id;sensor_type;location;lat;lon;timestamp;temperature;humidity
55870;DHT22;41790;50.940;4.560;2024-03-08T00:00:15;8.40;65.20
55870;DHT22;41790;50.940;4.560;2024-03-08T00:02:45;8.40;65.10
55870;DHT22;41790;50.940;4.560;2024-03-08T00:05:11;8.40;65.40
55870;DHT22;41790;50.940;4.560;2024-03-08T00:07:38;8.40;66.40
55870;DHT22;41790;50.940;4.560;2024-03-08T00:10:05;8.40;65.60
55870;DHT22;41790;50.940;4.560;2024-03-08T00:12:31;8.40;65.60
55870;DHT22;41790;50.940;4.560;2024-03-08T00:14:57;8.40;65.80
55870;DHT22;41790;50.940;4.560;2024-03-08T00:17:23;8.40;66.00
55870;DHT22;41790;50.940;4.560;2024-03-08T00:19:49;8.40;66.00
55870;DHT22;41790;50.940;4.560;2024-03-08T00:22:18;8.30;66.10
55870;DHT22;41790;50.940;4.560;2024-03-08T00:24:44;8.30;66.10
55870;DHT22;41790;50.940;4.560;2024-03-08T00:27:11;8.30;66.30
55870;DHT22;41790;50.940;4.560;2024-03-08T00:29:37;8.30;66.40
55870;DHT22;41790;50.940;4.560;2024-03-08T00:32:06;8.30;66.40
55870;DHT22;41790;50.940;4.560;2024-03-08T00:34:35;8.30;66.40
55870;DHT22;41790;50.940;4.560;2024-03-08T00:37:02;8.30;66.40
55870;DHT22;41790;50.940;4.560;2024-03-08T00:39:29;8.20;66.30
55870;DHT22;41790;50.940;4.560;2024-03-08T00:41:55;8.20;66.50
55870;DHT22;41790;50.940;4.560;2024-03-08T00:44:21;8.20;66.50
55870;DHT22;41790;50.940;4.560;2024-03-08T00:46:46;8.20;66.40
55870;DHT22;41790;50.940;4.560;2024-03-08T00:49:12;8.20;66.40
55870;DHT22;41790;50.940;4.560;2024-03-08T00:51:38;8.20;66.40
55870;DHT22;41790;50.940;4.560;2024-03-08T00:54:04;8.20;66.40
55870;DHT22;41790;50.940;4.560;2024-03-08T00:56:30;8.20;66.30
55870;DHT22;41790;50.940;4.560;2024-03-08T00:58:55;8.10;66.20
55870;DHT22;41790;50.940;4.560;2024-03-08T01:01:21;8.10;66.20
55870;DHT22;41790;50.940;4.560;2024-03-08T01:03:47;8.10;66.10
55870;DHT22;41790;50.940;4.560;2024-03-08T01:06:14;8.10;66.30
55870;DHT22;41790;50.940;4.560;2024-03-08T01:08:40;8.10;66.20
55870;DHT22;41790;50.940;4.560;2024-03-08T01:11:08;8.10;65.90
55870;DHT22;41790;50.940;4.560;2024-03-08T01:13:34;8.10;65.80
55870;DHT22;41790;50.940;4.560;2024-03-08T01:16:00;8.10;65.80
55870;DHT22;41790;50.940;4.560;2024-03-08T01:18:26;8.10;65.80
55870;DHT22;41790;50.940;4.560;2024-03-08T01:20:52;8.10;65.70
55870;DHT22;41790;50.940;4.560;2024-03-08T01:23:17;8.10;65.80
55870;DHT22;41790;50.940;4.560;2024-03-08T01:25:43;8.10;65.70
55870;DHT22;41790;50.940;4.560;2024-03-08T01:28:09;8.10;65.60
55870;DHT22;41790;50.940;4.560;2024-03-08T01:30:35;8.00;65.40
55870;DHT22;41790;50.940;4.560;2024-03-08T01:33:03;8.00;65.50
55870;DHT22;41790;50.940;4.560;2024-03-08T01:35:29;8.00;65.40
55870;DHT22;41790;50.940;4.560;2024-03-08T01:37:55;8.00;65.40
55870;DHT22;41790;50.940;4.560;2024-03-08T01:40:20;8.00;65.30
55870;DHT22;41790;50.940;4.560;2024-03-08T01:42:46;8.00;65.20
55870;DHT22;41790;50.940;4.560;2024-03-08T01:45:13;8.00;65.40
55870;DHT22;41790;50.940;4.560;2024-03-08T01:47:39;8.00;65.30
55870;DHT22;41790;50.940;4.560;2024-03-08T01:50:05;8.00;65.40
55870;DHT22;41790;50.940;4.560;2024-03-08T01:52:33;8.00;65.20
55870;DHT22;41790;50.940;4.560;2024-03-08T01:55:01;8.00;65.00
55870;DHT22;41790;50.940;4.560;2024-03-08T01:57:31;8.00;65.00
55870;DHT22;41790;50.940;4.560;2024-03-08T01:59:59;7.90;65.70
55870;DHT22;41790;50.940;4.560;2024-03-08T02:02:33;8.00;64.80
55870;DHT22;41790;50.940;4.560;2024-03-08T02:05:01;7.90;65.00
55870;DHT22;41790;50.940;4.560;2024-03-08T02:07:26;7.90;64.90
55870;DHT22;41790;50.940;4.560;2024-03-08T02:09:52;7.90;64.60
55870;DHT22;41790;50.940;4.560;2024-03-08T02:12:19;7.90;64.70
55870;DHT22;41790;50.940;4.560;2024-03-08T02:14:46;7.90;64.60
55870;DHT22;41790;50.940;4.560;2024-03-08T02:17:12;7.90;64.50
55870;DHT22;41790;50.940;4.560;2024-03-08T02:19:38;7.90;64.40
55870;DHT22;41790;50.940;4.560;2024-03-08T02:22:05;7.90;64.60
55870;DHT22;41790;50.940;4.560;2024-03-08T02:24:32;7.90;64.40
55870;DHT22;41790;50.940;4.560;2024-03-08T02:26:58;7.90;64.30
55870;DHT22;41790;50.940;4.560;2024-03-08T02:29:24;7.80;64.30
55870;DHT22;41790;50.940;4.560;2024-03-08T02:31:53;7.80;64.30
55870;DHT22;41790;50.940;4.560;2024-03-08T02:34:19;7.80;64.20
55870;DHT22;41790;50.940;4.560;2024-03-08T02:36:45;7.80;63.90
55870;DHT22;41790;50.940;4.560;2024-03-08T02:39:12;7.80;64.10
55870;DHT22;41790;50.940;4.560;2024-03-08T02:41:38;7.80;64.10
55870;DHT22;41790;50.940;4.560;2024-03-08T02:44:04;7.80;64.00
55870;DHT22;41790;50.940;4.560;2024-03-08T02:46:30;7.80;64.00
55870;DHT22;41790;50.940;4.560;2024-03-08T02:48:56;7.70;64.00
55870;DHT22;41790;50.940;4.560;2024-03-08T02:51:22;7.70;64.10
55870;DHT22;41790;50.940;4.560;2024-03-08T02:53:47;7.70;64.00
55870;DHT22;41790;50.940;4.560;2024-03-08T02:56:17;7.70;63.90
55870;DHT22;41790;50.940;4.560;2024-03-08T02:58:43;7.70;63.80
55870;DHT22;41790;50.940;4.560;2024-03-08T03:01:14;7.70;63.70
55870;DHT22;41790;50.940;4.560;2024-03-08T03:03:41;7.70;63.70
55870;DHT22;41790;50.940;4.560;2024-03-08T03:06:07;7.70;63.70
55870;DHT22;41790;50.940;4.560;2024-03-08T03:08:32;7.70;63.70
55870;DHT22;41790;50.940;4.560;2024-03-08T03:10:58;7.70;63.60
55870;DHT22;41790;50.940;4.560;2024-03-08T03:13:24;7.70;63.70
55870;DHT22;41790;50.940;4.560;2024-03-08T03:15:50;7.60;63.40
55870;DHT22;41790;50.940;4.560;2024-03-08T03:18:17;7.60;63.50
55870;DHT22;41790;50.940;4.560;2024-03-08T03:20:46;7.60;63.50
55870;DHT22;41790;50.940;4.560;2024-03-08T03:23:13;7.60;63.40
55870;DHT22;41790;50.940;4.560;2024-03-08T03:25:39;7.60;63.40
55870;DHT22;41790;50.940;4.560;2024-03-08T03:28:07;7.60;63.40
55870;DHT22;41790;50.940;4.560;2024-03-08T03:30:33;7.60;63.30
55870;DHT22;41790;50.940;4.560;2024-03-08T03:33:02;7.60;63.20
55870;DHT22;41790;50.940;4.560;2024-03-08T03:35:32;7.60;63.30
55870;DHT22;41790;50.940;4.560;2024-03-08T03:37:58;7.60;63.30
55870;DHT22;41790;50.940;4.560;2024-03-08T03:40:32;7.60;63.10
55870;DHT22;41790;50.940;4.560;2024-03-08T03:42:58;7.60;63.00
55870;DHT22;41790;50.940;4.560;2024-03-08T03:45:24;7.50;63.10
55870;DHT22;41790;50.940;4.560;2024-03-08T03:47:50;7.50;63.10
55870;DHT22;41790;50.940;4.560;2024-03-08T03:50:18;7.50;62.90
55870;DHT22;41790;50.940;4.560;2024-03-08T03:52:48;7.50;63.10
55870;DHT22;41790;50.940;4.560;2024-03-08T03:55:14;7.50;63.20
55870;DHT22;41790;50.940;4.560;2024-03-08T03:57:41;7.50;63.10
55870;DHT22;41790;50.940;4.560;2024-03-08T04:00:07;7.40;63.20
55870;DHT22;41790;50.940;4.560;2024-03-08T04:02:39;7.40;63.40
55870;DHT22;41790;50.940;4.560;2024-03-08T04:05:08;7.40;63.40
55870;DHT22;41790;50.940;4.560;2024-03-08T04:07:35;7.40;63.50
55870;DHT22;41790;50.940;4.560;2024-03-08T04:10:02;7.40;63.60
55870;DHT22;41790;50.940;4.560;2024-03-08T04:12:28;7.40;63.50
55870;DHT22;41790;50.940;4.560;2024-03-08T04:14:55;7.40;63.50
55870;DHT22;41790;50.940;4.560;2024-03-08T04:17:22;7.40;63.40
55870;DHT22;41790;50.940;4.560;2024-03-08T04:19:47;7.40;63.40
55870;DHT22;41790;50.940;4.560;2024-03-08T04:22:14;7.40;63.30
55870;DHT22;41790;50.940;4.560;2024-03-08T04:24:40;7.30;63.30
55870;DHT22;41790;50.940;4.560;2024-03-08T04:27:06;7.30;63.30
55870;DHT22;41790;50.940;4.560;2024-03-08T04:29:32;7.30;63.20
55870;DHT22;41790;50.940;4.560;2024-03-08T04:32:01;7.30;63.30
55870;DHT22;41790;50.940;4.560;2024-03-08T04:34:29;7.30;63.50
55870;DHT22;41790;50.940;4.560;2024-03-08T04:36:57;7.30;63.30
55870;DHT22;41790;50.940;4.560;2024-03-08T04:39:23;7.30;63.50
55870;DHT22;41790;50.940;4.560;2024-03-08T04:41:49;7.20;63.60
55870;DHT22;41790;50.940;4.560;2024-03-08T04:44:16;7.30;63.60
55870;DHT22;41790;50.940;4.560;2024-03-08T04:46:43;7.30;63.60
55870;DHT22;41790;50.940;4.560;2024-03-08T04:49:09;7.20;63.30
55870;DHT22;41790;50.940;4.560;2024-03-08T04:51:37;7.20;63.50
55870;DHT22;41790;50.940;4.560;2024-03-08T04:54:03;7.20;63.40
55870;DHT22;41790;50.940;4.560;2024-03-08T04:56:30;7.20;63.20
55870;DHT22;41790;50.940;4.560;2024-03-08T04:58:56;7.20;63.40
55870;DHT22;41790;50.940;4.560;2024-03-08T05:01:22;7.20;63.30
55870;DHT22;41790;50.940;4.560;2024-03-08T05:03:47;7.20;63.40
55870;DHT22;41790;50.940;4.560;2024-03-08T05:06:16;7.20;63.50
55870;DHT22;41790;50.940;4.560;2024-03-08T05:08:41;7.20;63.50
55870;DHT22;41790;50.940;4.560;2024-03-08T05:11:07;7.20;63.60
55870;DHT22;41790;50.940;4.560;2024-03-08T05:13:33;7.20;63.60
55870;DHT22;41790;50.940;4.560;2024-03-08T05:16:03;7.10;63.50
55870;DHT22;41790;50.940;4.560;2024-03-08T05:18:29;7.10;63.50
55870;DHT22;41790;50.940;4.560;2024-03-08T05:20:56;7.10;63.60
55870;DHT22;41790;50.940;4.560;2024-03-08T05:23:22;7.10;63.60
55870;DHT22;41790;50.940;4.560;2024-03-08T05:25:47;7.10;63.60
55870;DHT22;41790;50.940;4.560;2024-03-08T05:28:13;7.10;63.70
55870;DHT22;41790;50.940;4.560;2024-03-08T05:30:39;7.00;63.60
55870;DHT22;41790;50.940;4.560;2024-03-08T05:33:05;7.00;63.80
55870;DHT22;41790;50.940;4.560;2024-03-08T05:35:31;7.00;63.70
55870;DHT22;41790;50.940;4.560;2024-03-08T05:37:57;7.00;63.70
55870;DHT22;41790;50.940;4.560;2024-03-08T05:40:23;7.00;63.70
55870;DHT22;41790;50.940;4.560;2024-03-08T05:42:49;7.00;64.50
55870;DHT22;41790;50.940;4.560;2024-03-08T05:45:15;7.00;63.80
55870;DHT22;41790;50.940;4.560;2024-03-08T05:47:42;7.00;63.70
55870;DHT22;41790;50.940;4.560;2024-03-08T05:50:08;7.00;63.80
55870;DHT22;41790;50.940;4.560;2024-03-08T05:52:36;7.00;63.70
55870;DHT22;41790;50.940;4.560;2024-03-08T05:55:04;7.00;63.70
55870;DHT22;41790;50.940;4.560;2024-03-08T05:57:33;7.00;63.60
55870;DHT22;41790;50.940;4.560;2024-03-08T05:59:58;7.00;63.70
55870;DHT22;41790;50.940;4.560;2024-03-08T06:02:24;7.00;63.60
55870;DHT22;41790;50.940;4.560;2024-03-08T06:04:50;6.90;63.60
55870;DHT22;41790;50.940;4.560;2024-03-08T06:07:16;6.90;63.90
55870;DHT22;41790;50.940;4.560;2024-03-08T06:09:43;6.90;63.80
55870;DHT22;41790;50.940;4.560;2024-03-08T06:12:11;6.90;63.80
55870;DHT22;41790;50.940;4.560;2024-03-08T06:14:37;6.90;63.60
55870;DHT22;41790;50.940;4.560;2024-03-08T06:17:03;6.90;63.50
55870;DHT22;41790;50.940;4.560;2024-03-08T06:19:32;6.90;63.20
55870;DHT22;41790;50.940;4.560;2024-03-08T06:21:58;7.00;63.30
55870;DHT22;41790;50.940;4.560;2024-03-08T06:24:26;6.90;63.00
55870;DHT22;41790;50.940;4.560;2024-03-08T06:26:51;6.90;63.10
55870;DHT22;41790;50.940;4.560;2024-03-08T06:29:19;6.90;63.00
55870;DHT22;41790;50.940;4.560;2024-03-08T06:31:44;6.90;63.30
55870;DHT22;41790;50.940;4.560;2024-03-08T06:34:10;6.90;63.40
55870;DHT22;41790;50.940;4.560;2024-03-08T06:36:36;6.90;63.50
55870;DHT22;41790;50.940;4.560;2024-03-08T06:39:03;6.90;63.40
55870;DHT22;41790;50.940;4.560;2024-03-08T06:41:38;6.80;63.40
55870;DHT22;41790;50.940;4.560;2024-03-08T06:44:03;6.80;63.30
55870;DHT22;41790;50.940;4.560;2024-03-08T06:46:29;6.80;63.60
55870;DHT22;41790;50.940;4.560;2024-03-08T06:48:55;6.80;63.50
55870;DHT22;41790;50.940;4.560;2024-03-08T06:51:21;6.80;63.50
55870;DHT22;41790;50.940;4.560;2024-03-08T06:53:47;6.80;63.60
55870;DHT22;41790;50.940;4.560;2024-03-08T06:56:14;6.80;63.70
55870;DHT22;41790;50.940;4.560;2024-03-08T06:58:40;6.80;63.70
55870;DHT22;41790;50.940;4.560;2024-03-08T07:01:07;6.80;63.90
55870;DHT22;41790;50.940;4.560;2024-03-08T07:03:42;6.80;64.00
55870;DHT22;41790;50.940;4.560;2024-03-08T07:06:10;6.80;64.00
55870;DHT22;41790;50.940;4.560;2024-03-08T07:08:36;6.80;63.90
55870;DHT22;41790;50.940;4.560;2024-03-08T07:11:02;6.80;64.00
55870;DHT22;41790;50.940;4.560;2024-03-08T07:13:29;6.70;64.20
55870;DHT22;41790;50.940;4.560;2024-03-08T07:15:55;6.80;64.40
55870;DHT22;41790;50.940;4.560;2024-03-08T07:18:20;6.80;64.30
55870;DHT22;41790;50.940;4.560;2024-03-08T07:20:47;6.80;64.20
55870;DHT22;41790;50.940;4.560;2024-03-08T07:23:14;6.80;64.30
55870;DHT22;41790;50.940;4.560;2024-03-08T07:26:00;6.80;64.40
55870;DHT22;41790;50.940;4.560;2024-03-08T07:28:27;6.80;64.50
55870;DHT22;41790;50.940;4.560;2024-03-08T07:30:53;6.80;64.90
55870;DHT22;41790;50.940;4.560;2024-03-08T07:33:27;6.90;64.80
55870;DHT22;41790;50.940;4.560;2024-03-08T07:35:53;7.00;64.70
55870;DHT22;41790;50.940;4.560;2024-03-08T07:38:18;7.00;64.60
55870;DHT22;41790;50.940;4.560;2024-03-08T07:40:46;7.10;64.80
55870;DHT22;41790;50.940;4.560;2024-03-08T07:43:13;7.10;64.80
55870;DHT22;41790;50.940;4.560;2024-03-08T07:45:39;7.10;64.80
55870;DHT22;41790;50.940;4.560;2024-03-08T07:48:06;7.20;64.90
55870;DHT22;41790;50.940;4.560;2024-03-08T07:50:38;7.20;65.00
55870;DHT22;41790;50.940;4.560;2024-03-08T07:53:05;7.20;65.00
55870;DHT22;41790;50.940;4.560;2024-03-08T07:55:35;7.20;65.20
55870;DHT22;41790;50.940;4.560;2024-03-08T07:58:04;7.20;65.20
55870;DHT22;41790;50.940;4.560;2024-03-08T08:00:30;7.20;65.30
55870;DHT22;41790;50.940;4.560;2024-03-08T08:02:59;7.30;65.30
55870;DHT22;41790;50.940;4.560;2024-03-08T08:05:24;7.30;65.50
55870;DHT22;41790;50.940;4.560;2024-03-08T08:07:51;7.30;65.50
55870;DHT22;41790;50.940;4.560;2024-03-08T08:10:18;7.30;65.60
55870;DHT22;41790;50.940;4.560;2024-03-08T08:12:47;7.30;65.60
55870;DHT22;41790;50.940;4.560;2024-03-08T08:15:13;7.30;65.60
55870;DHT22;41790;50.940;4.560;2024-03-08T08:17:44;7.30;65.60
55870;DHT22;41790;50.940;4.560;2024-03-08T08:20:11;7.40;65.70
55870;DHT22;41790;50.940;4.560;2024-03-08T08:22:38;7.40;65.70
55870;DHT22;41790;50.940;4.560;2024-03-08T08:25:05;7.40;65.70
55870;DHT22;41790;50.940;4.560;2024-03-08T08:27:31;7.40;65.70
55870;DHT22;41790;50.940;4.560;2024-03-08T08:29:57;7.40;65.70
55870;DHT22;41790;50.940;4.560;2024-03-08T08:32:23;7.50;65.80
55870;DHT22;41790;50.940;4.560;2024-03-08T08:34:48;7.40;65.80
55870;DHT22;41790;50.940;4.560;2024-03-08T08:37:14;7.40;65.80
55870;DHT22;41790;50.940;4.560;2024-03-08T08:39:42;7.40;65.90
55870;DHT22;41790;50.940;4.560;2024-03-08T08:42:07;7.50;66.00
55870;DHT22;41790;50.940;4.560;2024-03-08T08:44:35;7.50;65.90
55870;DHT22;41790;50.940;4.560;2024-03-08T08:47:01;7.50;66.10
55870;DHT22;41790;50.940;4.560;2024-03-08T08:49:29;7.50;66.10
55870;DHT22;41790;50.940;4.560;2024-03-08T08:51:56;7.50;66.10
55870;DHT22;41790;50.940;4.560;2024-03-08T08:54:24;7.50;66.30
55870;DHT22;41790;50.940;4.560;2024-03-08T08:56:51;7.50;66.30
55870;DHT22;41790;50.940;4.560;2024-03-08T08:59:17;7.50;66.30
55870;DHT22;41790;50.940;4.560;2024-03-08T09:01:49;7.60;66.30
55870;DHT22;41790;50.940;4.560;2024-03-08T09:04:15;7.50;66.50
55870;DHT22;41790;50.940;4.560;2024-03-08T09:06:42;7.60;66.60
55870;DHT22;41790;50.940;4.560;2024-03-08T09:09:07;7.60;66.30
55870;DHT22;41790;50.940;4.560;2024-03-08T09:11:39;7.60;66.50
55870;DHT22;41790;50.940;4.560;2024-03-08T09:14:08;7.60;66.40
55870;DHT22;41790;50.940;4.560;2024-03-08T09:16:37;7.60;66.40
55870;DHT22;41790;50.940;4.560;2024-03-08T09:19:03;7.70;66.50
55870;DHT22;41790;50.940;4.560;2024-03-08T09:21:28;7.70;66.50
55870;DHT22;41790;50.940;4.560;2024-03-08T09:23:55;7.70;66.40
55870;DHT22;41790;50.940;4.560;2024-03-08T09:26:21;7.70;66.50
55870;DHT22;41790;50.940;4.560;2024-03-08T09:28:47;7.70;66.40
55870;DHT22;41790;50.940;4.560;2024-03-08T09:31:13;7.70;66.50
55870;DHT22;41790;50.940;4.560;2024-03-08T09:33:39;7.70;66.50
55870;DHT22;41790;50.940;4.560;2024-03-08T09:36:06;7.70;66.40
55870;DHT22;41790;50.940;4.560;2024-03-08T09:38:33;7.80;66.30
55870;DHT22;41790;50.940;4.560;2024-03-08T09:41:01;7.80;66.30
55870;DHT22;41790;50.940;4.560;2024-03-08T09:43:29;7.80;66.60
55870;DHT22;41790;50.940;4.560;2024-03-08T09:45:57;7.90;66.10
55870;DHT22;41790;50.940;4.560;2024-03-08T09:48:23;7.90;66.00
55870;DHT22;41790;50.940;4.560;2024-03-08T09:50:49;7.90;65.90
55870;DHT22;41790;50.940;4.560;2024-03-08T09:53:15;7.90;65.90
55870;DHT22;41790;50.940;4.560;2024-03-08T09:55:42;7.90;66.00
55870;DHT22;41790;50.940;4.560;2024-03-08T09:58:11;8.00;65.90
55870;DHT22;41790;50.940;4.560;2024-03-08T10:00:43;8.00;65.70
55870;DHT22;41790;50.940;4.560;2024-03-08T10:03:09;8.00;65.70
55870;DHT22;41790;50.940;4.560;2024-03-08T10:05:36;8.10;65.70
55870;DHT22;41790;50.940;4.560;2024-03-08T10:08:02;8.10;65.60
55870;DHT22;41790;50.940;4.560;2024-03-08T10:10:28;8.10;65.60
55870;DHT22;41790;50.940;4.560;2024-03-08T10:12:55;8.10;65.60
55870;DHT22;41790;50.940;4.560;2024-03-08T10:15:22;8.20;65.60
55870;DHT22;41790;50.940;4.560;2024-03-08T10:17:47;8.10;65.50
55870;DHT22;41790;50.940;4.560;2024-03-08T10:20:18;8.20;65.50
55870;DHT22;41790;50.940;4.560;2024-03-08T10:22:44;8.20;65.50
55870;DHT22;41790;50.940;4.560;2024-03-08T10:25:12;8.20;65.40
55870;DHT22;41790;50.940;4.560;2024-03-08T10:27:41;8.20;65.40
55870;DHT22;41790;50.940;4.560;2024-03-08T10:30:14;8.20;65.50
55870;DHT22;41790;50.940;4.560;2024-03-08T10:32:41;8.20;65.60
55870;DHT22;41790;50.940;4.560;2024-03-08T10:35:10;8.20;65.70
55870;DHT22;41790;50.940;4.560;2024-03-08T10:37:48;8.20;65.60
55870;DHT22;41790;50.940;4.560;2024-03-08T10:40:17;8.20;65.70
55870;DHT22;41790;50.940;4.560;2024-03-08T10:42:57;8.20;65.60
55870;DHT22;41790;50.940;4.560;2024-03-08T10:45:40;8.20;65.60
55870;DHT22;41790;50.940;4.560;2024-03-08T10:48:31;8.20;65.60
55870;DHT22;41790;50.940;4.560;2024-03-08T10:50:58;8.30;65.60
55870;DHT22;41790;50.940;4.560;2024-03-08T10:53:27;8.30;65.60
55870;DHT22;41790;50.940;4.560;2024-03-08T10:55:53;8.30;65.60
55870;DHT22;41790;50.940;4.560;2024-03-08T10:58:21;8.30;65.60
55870;DHT22;41790;50.940;4.560;2024-03-08T11:00:48;8.30;65.50
55870;DHT22;41790;50.940;4.560;2024-03-08T11:09:01;8.40;65.50
55870;DHT22;41790;50.940;4.560;2024-03-08T11:11:33;8.40;65.50
55870;DHT22;41790;50.940;4.560;2024-03-08T11:14:03;8.40;65.50
55870;DHT22;41790;50.940;4.560;2024-03-08T11:21:36;8.50;65.40
55870;DHT22;41790;50.940;4.560;2024-03-08T11:24:13;8.50;65.40
55870;DHT22;41790;50.940;4.560;2024-03-08T11:26:39;8.50;65.40
55870;DHT22;41790;50.940;4.560;2024-03-08T11:34:36;8.50;65.40
55870;DHT22;41790;50.940;4.560;2024-03-08T11:37:05;8.50;65.40
55870;DHT22;41790;50.940;4.560;2024-03-08T11:39:35;8.50;65.50
55870;DHT22;41790;50.940;4.560;2024-03-08T11:42:02;8.50;65.50
55870;DHT22;41790;50.940;4.560;2024-03-08T11:44:28;8.60;65.60
55870;DHT22;41790;50.940;4.560;2024-03-08T11:46:54;8.60;65.60
55870;DHT22;41790;50.940;4.560;2024-03-08T11:49:20;8.60;65.60
55870;DHT22;41790;50.940;4.560;2024-03-08T11:51:46;8.60;65.50
55870;DHT22;41790;50.940;4.560;2024-03-08T11:54:13;8.60;65.50
55870;DHT22;41790;50.940;4.560;2024-03-08T11:56:39;8.60;65.40
55870;DHT22;41790;50.940;4.560;2024-03-08T11:59:11;8.70;65.50
55870;DHT22;41790;50.940;4.560;2024-03-08T12:01:38;8.70;65.40
55870;DHT22;41790;50.940;4.560;2024-03-08T12:04:04;8.70;65.50
55870;DHT22;41790;50.940;4.560;2024-03-08T12:06:39;8.70;65.40
55870;DHT22;41790;50.940;4.560;2024-03-08T12:09:08;8.70;65.30
55870;DHT22;41790;50.940;4.560;2024-03-08T12:11:35;8.70;65.20
55870;DHT22;41790;50.940;4.560;2024-03-08T12:14:01;8.80;65.30
55870;DHT22;41790;50.940;4.560;2024-03-08T12:16:27;8.70;65.20
55870;DHT22;41790;50.940;4.560;2024-03-08T12:18:53;8.80;65.30
55870;DHT22;41790;50.940;4.560;2024-03-08T12:21:20;8.80;65.20
55870;DHT22;41790;50.940;4.560;2024-03-08T12:23:48;8.80;65.20
55870;DHT22;41790;50.940;4.560;2024-03-08T12:26:28;8.80;65.30
55870;DHT22;41790;50.940;4.560;2024-03-08T12:28:56;8.90;65.30
55870;DHT22;41790;50.940;4.560;2024-03-08T12:31:39;8.80;65.20
55870;DHT22;41790;50.940;4.560;2024-03-08T12:34:08;8.90;65.30
55870;DHT22;41790;50.940;4.560;2024-03-08T12:36:35;8.90;65.30
55870;DHT22;41790;50.940;4.560;2024-03-08T12:39:02;8.90;65.30
55870;DHT22;41790;50.940;4.560;2024-03-08T12:41:29;8.90;65.40
55870;DHT22;41790;50.940;4.560;2024-03-08T12:43:55;8.90;65.30
55870;DHT22;41790;50.940;4.560;2024-03-08T12:46:21;8.90;65.40
55870;DHT22;41790;50.940;4.560;2024-03-08T12:48:48;9.00;65.40
55870;DHT22;41790;50.940;4.560;2024-03-08T12:51:14;9.00;65.40
55870;DHT22;41790;50.940;4.560;2024-03-08T12:53:42;9.00;65.50
55870;DHT22;41790;50.940;4.560;2024-03-08T12:56:12;9.00;65.50
55870;DHT22;41790;50.940;4.560;2024-03-08T12:58:38;9.00;65.50
55870;DHT22;41790;50.940;4.560;2024-03-08T13:01:04;9.00;65.50
55870;DHT22;41790;50.940;4.560;2024-03-08T13:03:33;9.00;65.40
55870;DHT22;41790;50.940;4.560;2024-03-08T13:06:01;9.00;65.40
55870;DHT22;41790;50.940;4.560;2024-03-08T13:08:26;9.10;65.40
55870;DHT22;41790;50.940;4.560;2024-03-08T13:10:55;9.10;65.50
55870;DHT22;41790;50.940;4.560;2024-03-08T13:13:21;9.10;65.40
55870;DHT22;41790;50.940;4.560;2024-03-08T13:15:46;9.10;65.50
55870;DHT22;41790;50.940;4.560;2024-03-08T13:18:12;9.10;65.40
55870;DHT22;41790;50.940;4.560;2024-03-08T13:20:38;9.10;65.50
55870;DHT22;41790;50.940;4.560;2024-03-08T13:23:04;9.10;65.40
55870;DHT22;41790;50.940;4.560;2024-03-08T13:25:33;9.10;65.40
55870;DHT22;41790;50.940;4.560;2024-03-08T13:27:59;9.10;65.40
55870;DHT22;41790;50.940;4.560;2024-03-08T13:30:26;9.20;65.40
55870;DHT22;41790;50.940;4.560;2024-03-08T13:32:53;9.20;65.40
55870;DHT22;41790;50.940;4.560;2024-03-08T13:35:19;9.20;65.40
55870;DHT22;41790;50.940;4.560;2024-03-08T13:37:52;9.20;65.40
55870;DHT22;41790;50.940;4.560;2024-03-08T13:40:17;9.30;65.40
55870;DHT22;41790;50.940;4.560;2024-03-08T13:42:47;9.20;65.40
55870;DHT22;41790;50.940;4.560;2024-03-08T13:45:15;9.30;65.40
55870;DHT22;41790;50.940;4.560;2024-03-08T13:47:46;9.30;65.40
55870;DHT22;41790;50.940;4.560;2024-03-08T13:50:12;9.30;65.40
55870;DHT22;41790;50.940;4.560;2024-03-08T13:52:38;9.30;65.40
55870;DHT22;41790;50.940;4.560;2024-03-08T13:55:05;9.40;65.40
55870;DHT22;41790;50.940;4.560;2024-03-08T13:57:32;9.40;65.50
55870;DHT22;41790;50.940;4.560;2024-03-08T13:59:58;9.40;65.50
55870;DHT22;41790;50.940;4.560;2024-03-08T14:02:24;9.40;65.50
55870;DHT22;41790;50.940;4.560;2024-03-08T14:04:54;9.40;65.50
55870;DHT22;41790;50.940;4.560;2024-03-08T14:07:20;9.40;65.50
55870;DHT22;41790;50.940;4.560;2024-03-08T14:09:47;9.40;65.50
55870;DHT22;41790;50.940;4.560;2024-03-08T14:12:12;9.40;65.50
55870;DHT22;41790;50.940;4.560;2024-03-08T14:14:41;9.50;65.60
55870;DHT22;41790;50.940;4.560;2024-03-08T14:17:07;9.50;65.60
55870;DHT22;41790;50.940;4.560;2024-03-08T14:19:35;9.50;65.60
55870;DHT22;41790;50.940;4.560;2024-03-08T14:22:01;9.50;65.60
55870;DHT22;41790;50.940;4.560;2024-03-08T14:24:30;9.50;65.60
55870;DHT22;41790;50.940;4.560;2024-03-08T14:26:56;9.60;65.50
55870;DHT22;41790;50.940;4.560;2024-03-08T14:29:25;9.50;65.60
55870;DHT22;41790;50.940;4.560;2024-03-08T14:31:55;9.50;65.60
55870;DHT22;41790;50.940;4.560;2024-03-08T14:34:24;9.60;65.70
55870;DHT22;41790;50.940;4.560;2024-03-08T14:36:53;9.60;65.70
55870;DHT22;41790;50.940;4.560;2024-03-08T14:39:19;9.60;65.80
55870;DHT22;41790;50.940;4.560;2024-03-08T14:41:48;9.60;65.80
55870;DHT22;41790;50.940;4.560;2024-03-08T14:44:14;9.60;65.80
55870;DHT22;41790;50.940;4.560;2024-03-08T14:46:40;9.60;65.80
55870;DHT22;41790;50.940;4.560;2024-03-08T14:49:07;9.70;66.00
55870;DHT22;41790;50.940;4.560;2024-03-08T14:51:33;9.70;65.90
55870;DHT22;41790;50.940;4.560;2024-03-08T14:54:00;9.70;65.90
55870;DHT22;41790;50.940;4.560;2024-03-08T14:56:26;9.70;65.90
55870;DHT22;41790;50.940;4.560;2024-03-08T14:58:53;9.70;65.90
55870;DHT22;41790;50.940;4.560;2024-03-08T15:01:19;9.70;66.00
55870;DHT22;41790;50.940;4.560;2024-03-08T15:03:50;9.80;66.00
55870;DHT22;41790;50.940;4.560;2024-03-08T15:06:16;9.80;66.00
55870;DHT22;41790;50.940;4.560;2024-03-08T15:08:45;9.80;66.00
55870;DHT22;41790;50.940;4.560;2024-03-08T15:11:12;9.80;66.00
55870;DHT22;41790;50.940;4.560;2024-03-08T15:13:37;9.80;66.00
55870;DHT22;41790;50.940;4.560;2024-03-08T15:16:10;9.90;66.10
55870;DHT22;41790;50.940;4.560;2024-03-08T15:18:44;9.90;66.10
55870;DHT22;41790;50.940;4.560;2024-03-08T15:21:14;9.80;66.00
55870;DHT22;41790;50.940;4.560;2024-03-08T15:23:51;9.90;66.00
55870;DHT22;41790;50.940;4.560;2024-03-08T15:26:18;9.90;66.20
55870;DHT22;41790;50.940;4.560;2024-03-08T15:28:44;9.90;66.20
55870;DHT22;41790;50.940;4.560;2024-03-08T15:31:12;9.90;66.20
55870;DHT22;41790;50.940;4.560;2024-03-08T15:33:39;9.90;66.10
55870;DHT22;41790;50.940;4.560;2024-03-08T15:36:14;10.10;65.20
55870;DHT22;41790;50.940;4.560;2024-03-08T15:38:42;10.30;63.30
55870;DHT22;41790;50.940;4.560;2024-03-08T15:41:14;10.50;62.50
55870;DHT22;41790;50.940;4.560;2024-03-08T15:43:41;10.70;61.40
55870;DHT22;41790;50.940;4.560;2024-03-08T15:46:10;10.80;60.60
55870;DHT22;41790;50.940;4.560;2024-03-08T15:48:37;10.90;60.50
55870;DHT22;41790;50.940;4.560;2024-03-08T15:51:04;11.10;60.30
55870;DHT22;41790;50.940;4.560;2024-03-08T15:53:33;11.10;59.60
55870;DHT22;41790;50.940;4.560;2024-03-08T15:56:06;11.20;59.00
55870;DHT22;41790;50.940;4.560;2024-03-08T15:58:33;11.20;58.90
55870;DHT22;41790;50.940;4.560;2024-03-08T16:01:01;11.30;58.70